createdAt,value
2023-03-29T00:00:47.500Z,959.5370
2023-03-29T00:01:48.326Z,959.5048
2023-03-29T00:02:49.287Z,959.5322
2023-03-29T00:03:50.249Z,959.5208
2023-03-29T00:04:51.160Z,959.4941
2023-03-29T00:05:51.920Z,959.4882
2023-03-29T00:06:52.734Z,959.5270
2023-03-29T00:07:53.523Z,959.4996
2023-03-29T00:08:54.346Z,959.4763
2023-03-29T00:09:55.110Z,959.5333
2023-03-29T00:10:55.948Z,959.5596
2023-03-29T00:11:56.756Z,959.6030
2023-03-29T00:12:57.605Z,959.6107
2023-03-29T00:13:58.418Z,959.6019
2023-03-29T00:14:59.200Z,959.6370
2023-03-29T00:15:59.972Z,959.6796
2023-03-29T00:17:01.105Z,959.7226
2023-03-29T00:18:02.030Z,959.7689
2023-03-29T00:19:02.916Z,959.8522
2023-03-29T00:20:03.646Z,959.8867
2023-03-29T00:21:04.647Z,959.8834
2023-03-29T00:22:05.562Z,959.8055
2023-03-29T00:23:06.367Z,959.7911
2023-03-29T00:24:07.178Z,959.9008
2023-03-29T00:25:07.976Z,959.8766
2023-03-29T00:26:08.802Z,959.8663
2023-03-29T00:27:09.623Z,959.7726
2023-03-29T00:28:10.420Z,959.6674
2023-03-29T00:29:11.226Z,959.5878
2023-03-29T00:30:12.051Z,959.5240
2023-03-29T00:31:12.865Z,959.4467
2023-03-29T00:32:13.801Z,959.3900
2023-03-29T00:33:14.681Z,959.3489
2023-03-29T00:34:15.492Z,959.3474
2023-03-29T00:35:16.319Z,959.3007
2023-03-29T00:36:17.148Z,959.2504
2023-03-29T00:37:18.007Z,959.2470
2023-03-29T00:38:18.775Z,959.2185
2023-03-29T00:39:19.605Z,959.1896
2023-03-29T00:40:20.405Z,959.1511
2023-03-29T00:41:21.242Z,959.1252
2023-03-29T00:42:22.061Z,959.1078
2023-03-29T00:43:22.878Z,959.0863
2023-03-29T00:44:23.725Z,959.0863
2023-03-29T00:45:24.507Z,959.1185
2023-03-29T00:46:25.376Z,959.1155
2023-03-29T00:47:26.404Z,959.0885
2023-03-29T00:48:27.234Z,959.0793
2023-03-29T00:49:27.992Z,959.0678
2023-03-29T00:50:28.827Z,959.0163
2023-03-29T00:51:29.545Z,958.9752
2023-03-29T00:52:30.314Z,958.9978
2023-03-29T00:53:31.127Z,959.0226
2023-03-29T00:54:31.932Z,958.9848
2023-03-29T00:55:32.718Z,958.9889
2023-03-29T00:56:33.515Z,959.0137
2023-03-29T00:57:34.304Z,959.0518
2023-03-29T00:58:35.118Z,959.0634
2023-03-29T00:59:35.949Z,959.0582
2023-03-29T01:00:36.751Z,959.0696
2023-03-29T01:01:37.534Z,959.0211
2023-03-29T01:02:38.421Z,959.0256
2023-03-29T01:03:39.540Z,959.0089
2023-03-29T01:04:40.556Z,959.0096
2023-03-29T01:05:41.383Z,958.9848
2023-03-29T01:06:42.182Z,958.9844
2023-03-29T01:07:43.090Z,958.9837
2023-03-29T01:08:43.860Z,958.9559
2023-03-29T01:09:44.678Z,958.9781
2023-03-29T01:10:45.362Z,959.0085
2023-03-29T01:11:46.190Z,958.9944
2023-03-29T01:12:46.999Z,958.9611
2023-03-29T01:13:47.801Z,958.9722
2023-03-29T01:14:48.806Z,959.0167
2023-03-29T01:15:49.640Z,959.0141
2023-03-29T01:16:50.479Z,959.0096
2023-03-29T01:17:51.318Z,959.0385
2023-03-29T01:18:52.102Z,959.0344
2023-03-29T01:19:52.904Z,959.0022
2023-03-29T01:20:53.674Z,958.9567
2023-03-29T01:21:54.484Z,958.9067
2023-03-29T01:22:55.344Z,958.8845
2023-03-29T01:23:56.184Z,958.8785
2023-03-29T01:24:56.963Z,958.9078
2023-03-29T01:25:57.812Z,958.9067
2023-03-29T01:26:58.636Z,958.8696
2023-03-29T01:27:59.451Z,958.8644
2023-03-29T01:29:00.286Z,958.8478
2023-03-29T01:30:01.143Z,958.8415
2023-03-29T01:31:02.163Z,958.8500
2023-03-29T01:32:03.604Z,958.8397
2023-03-29T01:33:04.863Z,958.8182
2023-03-29T01:34:05.671Z,958.8182
2023-03-29T01:35:06.486Z,958.8259
2023-03-29T01:36:07.223Z,958.8152
2023-03-29T01:37:08.037Z,958.7881
2023-03-29T01:38:08.784Z,958.7400
2023-03-29T01:39:09.564Z,958.7582
2023-03-29T01:40:10.390Z,958.7648
2023-03-29T01:41:11.200Z,958.7496
2023-03-29T01:42:12.033Z,958.6911
2023-03-29T01:43:13.061Z,958.6307
2023-03-29T01:44:14.190Z,958.6141
2023-03-29T01:45:15.309Z,958.5833
2023-03-29T01:46:16.240Z,958.5482
2023-03-29T01:47:17.140Z,958.5707
2023-03-29T01:48:17.972Z,958.5800
2023-03-29T01:49:18.759Z,958.6211
2023-03-29T01:50:19.610Z,958.6089
2023-03-29T01:51:20.421Z,958.6137
2023-03-29T01:52:21.271Z,958.5856
2023-03-29T01:53:22.087Z,958.5444
2023-03-29T01:54:22.954Z,958.5408
2023-03-29T01:55:23.750Z,958.5863
2023-03-29T01:56:24.552Z,958.6352
2023-03-29T01:57:25.498Z,958.6941
2023-03-29T01:58:26.343Z,958.7678
2023-03-29T01:59:27.049Z,958.7715
2023-03-29T02:00:27.873Z,958.7126
2023-03-29T02:01:28.834Z,958.6700
2023-03-29T02:02:29.811Z,958.6607
2023-03-29T02:03:30.755Z,958.6934
2023-03-29T02:04:32.186Z,958.7034
2023-03-29T02:05:32.997Z,958.6711
2023-03-29T02:06:33.800Z,958.6230
2023-03-29T02:07:34.608Z,958.5885
2023-03-29T02:08:35.468Z,958.5693
2023-03-29T02:09:36.269Z,958.5826
2023-03-29T02:10:37.075Z,958.6118
2023-03-29T02:11:37.876Z,958.6159
2023-03-29T02:12:38.708Z,958.5963
2023-03-29T02:13:39.528Z,958.5696
2023-03-29T02:14:40.498Z,958.5500
2023-03-29T02:15:41.340Z,958.5089
2023-03-29T02:16:42.189Z,958.5396
2023-03-29T02:17:43.046Z,958.5422
2023-03-29T02:18:44.010Z,958.5189
2023-03-29T02:19:44.769Z,958.5211
2023-03-29T02:20:45.490Z,958.5693
2023-03-29T02:21:46.326Z,958.5455
2023-03-29T02:22:47.121Z,958.5611
2023-03-29T02:23:47.966Z,958.5411
2023-03-29T02:24:48.785Z,958.5414
2023-03-29T02:25:49.633Z,958.5148
2023-03-29T02:26:50.606Z,958.5004
2023-03-29T02:27:51.410Z,958.4796
2023-03-29T02:28:52.230Z,958.4685
2023-03-29T02:29:53.059Z,958.4719
2023-03-29T02:30:53.903Z,958.4485
2023-03-29T02:31:54.693Z,958.4282
2023-03-29T02:32:55.596Z,958.4185
2023-03-29T02:33:56.478Z,958.3826
2023-03-29T02:34:57.316Z,958.3426
2023-03-29T02:35:58.068Z,958.3037
2023-03-29T02:36:58.826Z,958.3093
2023-03-29T02:37:59.533Z,958.3044
2023-03-29T02:39:00.355Z,958.3122
2023-03-29T02:40:01.206Z,958.3356
2023-03-29T02:41:02.213Z,958.3796
2023-03-29T02:42:03.607Z,958.4222
2023-03-29T02:43:04.450Z,958.4248
2023-03-29T02:44:05.249Z,958.4163
2023-03-29T02:45:06.079Z,958.4103
2023-03-29T02:46:06.940Z,958.4089
2023-03-29T02:47:07.801Z,958.4322
2023-03-29T02:48:08.615Z,958.4663
2023-03-29T02:49:09.555Z,958.4826
2023-03-29T02:50:10.355Z,958.4822
2023-03-29T02:51:11.208Z,958.4896
2023-03-29T02:52:12.042Z,958.4959
2023-03-29T02:53:12.874Z,958.5219
2023-03-29T02:54:13.697Z,958.5252
2023-03-29T02:55:14.470Z,958.4652
2023-03-29T02:56:15.280Z,958.4545
2023-03-29T02:57:16.254Z,958.4703
2023-03-29T02:58:17.134Z,958.4719
2023-03-29T02:59:17.951Z,958.4755
2023-03-29T03:00:18.785Z,958.4970
2023-03-29T03:01:19.632Z,958.4526
2023-03-29T03:02:20.522Z,958.3997
2023-03-29T03:03:21.470Z,958.3659
2023-03-29T03:04:22.382Z,958.3381
2023-03-29T03:05:23.188Z,958.3041
2023-03-29T03:06:24.052Z,958.2952
2023-03-29T03:07:25.950Z,958.2959
2023-03-29T03:08:26.770Z,958.3048
2023-03-29T03:09:27.566Z,958.3130
2023-03-29T03:10:28.465Z,958.3234
2023-03-29T03:11:29.198Z,958.3778
2023-03-29T03:12:30.053Z,958.4171
2023-03-29T03:13:30.774Z,958.4651
2023-03-29T03:14:31.570Z,958.4670
2023-03-29T03:15:32.274Z,958.4500
2023-03-29T03:16:33.118Z,958.4300
2023-03-29T03:17:33.885Z,958.4045
2023-03-29T03:18:34.702Z,958.3948
2023-03-29T03:19:35.519Z,958.3948
2023-03-29T03:20:36.373Z,958.3426
2023-03-29T03:21:37.159Z,958.2944
2023-03-29T03:22:37.959Z,958.3252
2023-03-29T03:23:38.768Z,958.3467
2023-03-29T03:24:39.485Z,958.3985
2023-03-29T03:25:40.297Z,958.4241
2023-03-29T03:26:41.120Z,958.4496
2023-03-29T03:27:41.951Z,958.4692
2023-03-29T03:28:42.749Z,958.4830
2023-03-29T03:29:43.587Z,958.4441
2023-03-29T03:30:44.613Z,958.4148
2023-03-29T03:31:45.550Z,958.3822
2023-03-29T03:32:46.403Z,958.3830
2023-03-29T03:33:47.257Z,958.3752
2023-03-29T03:34:48.120Z,958.3582
2023-03-29T03:35:48.918Z,958.3156
2023-03-29T03:36:49.787Z,958.2819
2023-03-29T03:37:50.606Z,958.2611
2023-03-29T03:38:51.471Z,958.2307
2023-03-29T03:39:52.241Z,958.2522
2023-03-29T03:40:53.044Z,958.3419
2023-03-29T03:41:53.949Z,958.3985
2023-03-29T03:42:54.709Z,958.3467
2023-03-29T03:43:55.907Z,958.3722
2023-03-29T03:44:56.998Z,958.3541
2023-03-29T03:45:57.996Z,958.2837
2023-03-29T03:46:58.902Z,958.2963
2023-03-29T03:47:59.727Z,958.2611
2023-03-29T03:49:00.585Z,958.2307
2023-03-29T03:50:01.425Z,958.2989
2023-03-29T03:51:02.327Z,958.3015
2023-03-29T03:52:03.785Z,958.2137
2023-03-29T03:53:04.546Z,958.3004
2023-03-29T03:54:05.391Z,958.3052
2023-03-29T03:55:06.170Z,958.2459
2023-03-29T03:56:06.943Z,958.2693
2023-03-29T03:57:07.729Z,958.3122
2023-03-29T03:58:08.558Z,958.2518
2023-03-29T03:59:09.372Z,958.3059
2023-03-29T04:00:10.152Z,958.2848
2023-03-29T04:01:10.928Z,958.2767
2023-03-29T04:02:11.763Z,958.3533
2023-03-29T04:03:12.668Z,958.3596
2023-03-29T04:04:13.912Z,958.3952
2023-03-29T04:05:14.607Z,958.3959
2023-03-29T04:06:15.415Z,958.3304
2023-03-29T04:07:16.217Z,958.2852
2023-03-29T04:08:17.010Z,958.4141
2023-03-29T04:09:17.785Z,958.4122
2023-03-29T04:10:18.654Z,958.3348
2023-03-29T04:11:19.483Z,958.2670
2023-03-29T04:12:20.288Z,958.2233
2023-03-29T04:13:21.151Z,958.2804
2023-03-29T04:14:21.948Z,958.3514
2023-03-29T04:15:22.712Z,958.3400
2023-03-29T04:16:23.495Z,958.3481
2023-03-29T04:17:24.533Z,958.3666
2023-03-29T04:18:25.465Z,958.3574
2023-03-29T04:19:26.504Z,958.3907
2023-03-29T04:20:27.330Z,958.3100
2023-03-29T04:21:28.122Z,958.3307
2023-03-29T04:22:28.903Z,958.3622
2023-03-29T04:23:29.723Z,958.4103
2023-03-29T04:24:30.590Z,958.4074
2023-03-29T04:25:31.361Z,958.4056
2023-03-29T04:26:32.156Z,958.4185
2023-03-29T04:27:32.994Z,958.4111
2023-03-29T04:28:33.812Z,958.4078
2023-03-29T04:29:34.616Z,958.3859
2023-03-29T04:30:35.407Z,958.3511
2023-03-29T04:31:36.257Z,958.3163
2023-03-29T04:32:37.062Z,958.3063
2023-03-29T04:33:37.800Z,958.2844
2023-03-29T04:34:38.553Z,958.2600
2023-03-29T04:35:39.315Z,958.2007
2023-03-29T04:36:40.106Z,958.1911
2023-03-29T04:37:40.921Z,958.1660
2023-03-29T04:38:46.106Z,958.1174
2023-03-29T04:39:44.464Z,958.1516
2023-03-29T04:40:45.272Z,958.2192
2023-03-29T04:41:45.974Z,958.2208
2023-03-29T04:42:46.793Z,958.2534
2023-03-29T04:43:47.567Z,958.2382
2023-03-29T04:44:48.418Z,958.1874
2023-03-29T04:45:49.317Z,958.1915
2023-03-29T04:46:50.240Z,958.1407
2023-03-29T04:47:51.150Z,958.1470
2023-03-29T04:48:51.988Z,958.1107
2023-03-29T04:49:52.812Z,958.1508
2023-03-29T04:50:53.672Z,958.1637
2023-03-29T04:51:54.496Z,958.2382
2023-03-29T04:52:55.319Z,958.1752
2023-03-29T04:53:56.106Z,958.1263
2023-03-29T04:54:56.909Z,958.1277
2023-03-29T04:55:57.664Z,958.1207
2023-03-29T04:56:58.560Z,958.0874
2023-03-29T04:57:59.324Z,958.0970
2023-03-29T04:59:00.184Z,958.1793
2023-03-29T05:00:00.932Z,958.2289
2023-03-29T05:01:02.074Z,958.1882
2023-03-29T05:02:03.967Z,958.1833
2023-03-29T05:03:04.851Z,958.1318
2023-03-29T05:04:05.745Z,958.2145
2023-03-29T05:05:06.507Z,958.3167
2023-03-29T05:06:07.559Z,958.3170
2023-03-29T05:07:08.545Z,958.3752
2023-03-29T05:08:09.421Z,958.3318
2023-03-29T05:09:10.139Z,958.1552
2023-03-29T05:10:10.997Z,958.1030
2023-03-29T05:11:11.888Z,958.1270
2023-03-29T05:12:12.749Z,958.0326
2023-03-29T05:13:13.530Z,957.9974
2023-03-29T05:14:14.311Z,957.9178
2023-03-29T05:15:15.183Z,957.8766
2023-03-29T05:16:16.087Z,957.8674
2023-03-29T05:17:16.916Z,957.8533
2023-03-29T05:18:17.762Z,957.9396
2023-03-29T05:19:18.972Z,958.0507
2023-03-29T05:20:20.004Z,958.0626
2023-03-29T05:21:20.709Z,958.0374
2023-03-29T05:22:21.502Z,958.0611
2023-03-29T05:23:22.452Z,958.0478
2023-03-29T05:24:23.263Z,958.0922
2023-03-29T05:25:24.043Z,958.1089
2023-03-29T05:26:24.844Z,958.1815
2023-03-29T05:27:25.667Z,958.2260
2023-03-29T05:28:26.438Z,958.2500
2023-03-29T05:29:27.222Z,958.2789
2023-03-29T05:30:28.025Z,958.2686
2023-03-29T05:31:28.891Z,958.2878
2023-03-29T05:32:29.628Z,958.3170
2023-03-29T05:33:30.414Z,958.3474
2023-03-29T05:34:31.188Z,958.3441
2023-03-29T05:35:32.039Z,958.3704
2023-03-29T05:36:32.850Z,958.3696
2023-03-29T05:37:33.640Z,958.3111
2023-03-29T05:38:34.497Z,958.2959
2023-03-29T05:39:37.557Z,958.2804
2023-03-29T05:40:36.394Z,958.2839
2023-03-29T05:41:37.186Z,958.3207
2023-03-29T05:42:38.022Z,958.3222
2023-03-29T05:43:38.814Z,958.3270
2023-03-29T05:44:39.548Z,958.3289
2023-03-29T05:45:40.691Z,958.3085
2023-03-29T05:46:41.489Z,958.3044
2023-03-29T05:47:42.314Z,958.2889
2023-03-29T05:48:43.041Z,958.2811
2023-03-29T05:49:43.849Z,958.2466
2023-03-29T05:50:46.260Z,958.2222
2023-03-29T05:51:45.118Z,958.2058
2023-03-29T05:52:45.988Z,958.1882
2023-03-29T05:53:46.765Z,958.1648
2023-03-29T05:54:47.594Z,958.1630
2023-03-29T05:55:49.459Z,958.1189
2023-03-29T05:56:50.342Z,958.1230
2023-03-29T05:57:51.129Z,958.1200
2023-03-29T05:58:53.726Z,958.1255
2023-03-29T05:59:53.700Z,958.1192
2023-03-29T06:00:54.505Z,958.1429
2023-03-29T06:01:55.345Z,958.1230
2023-03-29T06:03:01.373Z,958.1508
2023-03-29T06:03:56.441Z,958.1613
2023-03-29T06:04:57.445Z,958.1855
2023-03-29T06:05:58.316Z,958.2181
2023-03-29T06:06:59.090Z,958.2352
2023-03-29T06:08:00.157Z,958.2729
2023-03-29T06:09:01.087Z,958.2948
2023-03-29T06:10:01.871Z,958.3334
2023-03-29T06:11:04.461Z,958.3537
2023-03-29T06:12:04.293Z,958.3431
2023-03-29T06:13:05.169Z,958.3293
2023-03-29T06:14:05.980Z,958.3444
2023-03-29T06:15:06.779Z,958.3156
2023-03-29T06:16:07.582Z,958.2982
2023-03-29T06:17:08.443Z,958.2885
2023-03-29T06:18:09.284Z,958.2715
2023-03-29T06:19:10.042Z,958.2915
2023-03-29T06:20:10.842Z,958.3163
2023-03-29T06:21:12.779Z,958.3345
2023-03-29T06:22:14.923Z,958.3607
2023-03-29T06:23:15.815Z,958.3693
2023-03-29T06:24:16.765Z,958.3500
2023-03-29T06:25:17.599Z,958.3248
2023-03-29T06:26:18.489Z,958.3300
2023-03-29T06:27:19.256Z,958.3578
2023-03-29T06:28:20.032Z,958.4030
2023-03-29T06:29:20.819Z,958.4167
2023-03-29T06:30:21.585Z,958.3970
2023-03-29T06:31:22.422Z,958.3867
2023-03-29T06:32:23.305Z,958.3652
2023-03-29T06:33:24.179Z,958.3297
2023-03-29T06:34:24.991Z,958.3530
2023-03-29T06:35:25.766Z,958.3693
2023-03-29T06:36:26.532Z,958.3419
2023-03-29T06:37:27.454Z,958.3019
2023-03-29T06:38:28.371Z,958.2841
2023-03-29T06:39:29.294Z,958.2985
2023-03-29T06:40:30.060Z,958.3341
2023-03-29T06:41:30.854Z,958.3404
2023-03-29T06:42:31.705Z,958.3633
2023-03-29T06:43:32.489Z,958.3793
2023-03-29T06:44:33.288Z,958.4033
2023-03-29T06:45:34.682Z,958.4296
2023-03-29T06:46:35.495Z,958.4467
2023-03-29T06:47:36.328Z,958.4589
2023-03-29T06:48:37.131Z,958.4537
2023-03-29T06:49:37.933Z,958.4763
2023-03-29T06:50:38.721Z,958.5070
2023-03-29T06:51:39.485Z,958.5148
2023-03-29T06:52:40.333Z,958.4826
2023-03-29T06:53:41.140Z,958.4833
2023-03-29T06:54:41.877Z,958.4622
2023-03-29T06:55:42.547Z,958.4574
2023-03-29T06:56:43.340Z,958.4630
2023-03-29T06:57:44.041Z,958.4796
2023-03-29T06:58:44.885Z,958.5167
2023-03-29T06:59:45.670Z,958.5482
2023-03-29T07:00:46.435Z,958.5344
2023-03-29T07:01:47.251Z,958.4970
2023-03-29T07:02:48.055Z,958.4648
2023-03-29T07:03:48.849Z,958.4985
2023-03-29T07:04:49.673Z,958.5115
2023-03-29T07:05:50.450Z,958.5441
2023-03-29T07:06:51.249Z,958.5689
2023-03-29T07:07:51.876Z,958.5659
2023-03-29T07:08:52.733Z,958.5274
2023-03-29T07:09:53.477Z,958.5308
2023-03-29T07:10:54.258Z,958.5715
2023-03-29T07:11:54.963Z,958.5707
2023-03-29T07:12:56.733Z,958.5585
2023-03-29T07:13:57.543Z,958.5715
2023-03-29T07:14:58.306Z,958.5937
2023-03-29T07:15:59.136Z,958.6363
2023-03-29T07:17:00.054Z,958.6456
2023-03-29T07:18:00.863Z,958.6144
2023-03-29T07:19:01.680Z,958.6370
2023-03-29T07:20:02.491Z,958.6255
2023-03-29T07:21:03.284Z,958.5767
2023-03-29T07:22:04.157Z,958.5319
2023-03-29T07:23:04.980Z,958.5270
2023-03-29T07:24:05.709Z,958.5111
2023-03-29T07:25:06.482Z,958.5278
2023-03-29T07:26:07.214Z,958.5233
2023-03-29T07:27:07.982Z,958.5563
2023-03-29T07:28:08.739Z,958.5645
2023-03-29T07:29:09.547Z,958.5670
2023-03-29T07:30:10.308Z,958.5989
2023-03-29T07:31:11.191Z,958.6863
2023-03-29T07:32:12.400Z,958.7281
2023-03-29T07:33:13.332Z,958.7159
2023-03-29T07:34:14.417Z,958.7415
2023-03-29T07:35:15.204Z,958.7948
2023-03-29T07:36:16.003Z,958.8134
2023-03-29T07:37:16.897Z,958.8541
2023-03-29T07:38:17.678Z,958.8881
2023-03-29T07:39:18.510Z,958.9170
2023-03-29T07:40:19.262Z,958.9067
2023-03-29T07:41:20.058Z,958.9126
2023-03-29T07:42:20.857Z,958.9252
2023-03-29T07:43:21.624Z,958.9111
2023-03-29T07:44:22.434Z,958.8982
2023-03-29T07:45:26.743Z,958.9011
2023-03-29T07:46:25.494Z,958.9048
2023-03-29T07:47:26.254Z,958.8582
2023-03-29T07:49:27.467Z,958.8826
2023-03-29T07:50:28.186Z,958.8774
2023-03-29T07:51:28.949Z,958.8367
2023-03-29T07:52:29.814Z,958.8519
2023-03-29T07:53:31.586Z,958.8722
2023-03-29T07:54:32.394Z,958.8682
2023-03-29T07:55:33.165Z,958.8226
2023-03-29T07:56:33.976Z,958.7841
2023-03-29T07:57:34.743Z,958.7793
2023-03-29T07:58:35.537Z,958.7922
2023-03-29T07:59:36.292Z,958.7504
2023-03-29T08:00:37.075Z,958.7418
2023-03-29T08:01:37.835Z,958.7626
2023-03-29T08:02:38.608Z,958.7593
2023-03-29T08:03:39.359Z,958.7822
2023-03-29T08:04:40.201Z,958.7885
2023-03-29T08:05:41.976Z,958.7870
2023-03-29T08:06:40.972Z,958.8289
2023-03-29T08:07:41.695Z,958.8552
2023-03-29T08:08:42.373Z,958.8441
2023-03-29T08:09:43.221Z,958.8359
2023-03-29T08:10:43.987Z,958.9048
2023-03-29T08:11:44.718Z,958.9019
2023-03-29T08:12:45.511Z,958.9540
2023-03-29T08:13:46.274Z,959.0200
2023-03-29T08:14:46.997Z,959.0663
2023-03-29T08:15:47.799Z,959.0852
2023-03-29T08:16:48.611Z,959.0818
2023-03-29T08:17:49.413Z,959.0944
2023-03-29T08:18:50.298Z,959.0852
2023-03-29T08:19:52.219Z,959.0704
2023-03-29T08:20:51.100Z,959.0789
2023-03-29T08:21:51.832Z,959.0804
2023-03-29T08:22:52.582Z,959.0807
2023-03-29T08:23:53.240Z,959.0852
2023-03-29T08:24:54.016Z,959.0937
2023-03-29T08:25:54.821Z,959.1037
2023-03-29T08:26:55.641Z,959.1052
2023-03-29T08:27:56.598Z,959.1352
2023-03-29T08:28:57.363Z,959.1422
2023-03-29T08:29:58.106Z,959.1334
2023-03-29T08:30:58.950Z,959.1307
2023-03-29T08:31:59.727Z,959.1033
2023-03-29T08:33:00.598Z,959.1215
2023-03-29T08:34:01.366Z,959.1096
2023-03-29T08:35:02.161Z,959.1055
2023-03-29T08:36:02.969Z,959.1063
2023-03-29T08:37:03.765Z,959.0845
2023-03-29T08:38:04.555Z,959.0552
2023-03-29T08:39:05.329Z,959.0500
2023-03-29T08:40:06.123Z,959.0182
2023-03-29T08:41:06.781Z,959.0200
2023-03-29T08:42:07.589Z,958.9970
2023-03-29T08:43:08.389Z,958.9663
2023-03-29T08:44:09.171Z,958.9604
2023-03-29T08:45:09.924Z,958.9959
2023-03-29T08:46:10.702Z,958.9770
2023-03-29T08:47:11.486Z,959.0056
2023-03-29T08:48:12.273Z,959.0403
2023-03-29T08:49:13.060Z,959.0204
2023-03-29T08:50:13.923Z,959.0444
2023-03-29T08:51:14.638Z,959.0396
2023-03-29T08:52:15.396Z,959.0659
2023-03-29T08:53:16.206Z,959.0626
2023-03-29T08:54:16.994Z,959.0970
2023-03-29T08:55:17.784Z,959.1148
2023-03-29T08:56:18.561Z,959.1241
2023-03-29T08:57:19.351Z,959.0915
2023-03-29T08:58:20.274Z,959.0922
2023-03-29T08:59:21.089Z,959.1011
2023-03-29T09:00:21.827Z,959.1122
2023-03-29T09:01:22.706Z,959.1193
2023-03-29T09:02:23.719Z,959.1237
2023-03-29T09:03:25.015Z,959.1170
2023-03-29T09:04:25.948Z,959.1304
2023-03-29T09:05:26.782Z,959.1418
2023-03-29T09:06:27.668Z,959.1515
2023-03-29T09:07:28.390Z,959.1185
2023-03-29T09:08:29.136Z,959.0956
2023-03-29T09:09:29.942Z,959.0989
2023-03-29T09:10:30.692Z,959.0781
2023-03-29T09:11:31.432Z,959.0604
2023-03-29T09:12:32.087Z,959.0570
2023-03-29T09:13:32.943Z,959.0444
2023-03-29T09:14:33.767Z,959.0274
2023-03-29T09:15:34.570Z,959.0452
2023-03-29T09:16:35.463Z,959.0596
2023-03-29T09:17:36.261Z,959.0474
2023-03-29T09:18:37.134Z,959.0478
2023-03-29T09:19:38.008Z,959.0230
2023-03-29T09:20:38.777Z,959.0270
2023-03-29T09:21:39.536Z,959.0082
2023-03-29T09:22:40.335Z,958.9737
2023-03-29T09:23:41.139Z,958.9700
2023-03-29T09:24:41.927Z,958.9703
2023-03-29T09:25:52.437Z,958.9366
2023-03-29T09:26:44.709Z,958.9656
2023-03-29T09:27:45.398Z,958.9759
2023-03-29T09:28:46.130Z,958.9674
2023-03-29T09:29:46.819Z,958.9581
2023-03-29T09:30:47.598Z,958.9511
2023-03-29T09:31:48.473Z,958.9674
2023-03-29T09:32:49.283Z,958.9563
2023-03-29T09:33:50.048Z,958.9370
2023-03-29T09:34:50.816Z,958.9130
2023-03-29T09:35:51.672Z,958.9322
2023-03-29T09:36:52.554Z,958.9459
2023-03-29T09:37:53.369Z,958.9500
2023-03-29T09:38:54.206Z,958.9366
2023-03-29T09:39:55.134Z,958.9378
2023-03-29T09:40:55.950Z,958.9434
2023-03-29T09:41:56.715Z,958.9422
2023-03-29T09:42:57.510Z,958.9670
2023-03-29T09:43:58.318Z,958.9915
2023-03-29T09:44:59.082Z,958.9948
2023-03-29T09:45:59.989Z,959.0037
2023-03-29T09:47:00.897Z,958.9622
2023-03-29T09:48:01.695Z,958.9374
2023-03-29T09:49:02.458Z,958.8981
2023-03-29T09:50:03.257Z,958.9033
2023-03-29T09:51:04.286Z,958.9111
2023-03-29T09:52:05.617Z,958.9378
2023-03-29T09:53:06.446Z,958.9352
2023-03-29T09:54:07.222Z,958.9285
2023-03-29T09:55:08.036Z,958.9214
2023-03-29T09:56:08.864Z,958.8800
2023-03-29T09:57:09.735Z,958.8604
2023-03-29T09:58:10.655Z,958.8834
2023-03-29T09:59:11.446Z,958.8763
2023-03-29T10:00:12.263Z,958.8511
2023-03-29T10:01:13.078Z,958.8503
2023-03-29T10:02:13.796Z,958.8759
2023-03-29T10:03:14.609Z,958.8730
2023-03-29T10:04:15.384Z,958.8822
2023-03-29T10:05:16.160Z,958.8415
2023-03-29T10:06:16.970Z,958.8560
2023-03-29T10:07:17.731Z,958.8730
2023-03-29T10:08:19.661Z,958.8415
2023-03-29T10:09:18.689Z,958.8615
2023-03-29T10:11:20.042Z,958.8374
2023-03-29T10:12:20.734Z,958.8448
2023-03-29T10:13:21.385Z,958.8674
2023-03-29T10:15:29.668Z,958.8334
2023-03-29T10:16:24.822Z,958.8376
2023-03-29T10:17:25.619Z,958.8734
2023-03-29T10:18:26.397Z,958.8878
2023-03-29T10:19:27.087Z,958.8804
2023-03-29T10:20:27.863Z,958.8974
2023-03-29T10:21:28.638Z,958.9026
2023-03-29T10:22:29.425Z,958.9011
2023-03-29T10:23:30.185Z,958.9070
2023-03-29T10:24:30.930Z,958.9266
2023-03-29T10:25:31.709Z,958.9411
2023-03-29T10:26:32.496Z,958.9597
2023-03-29T10:27:33.248Z,958.9589
2023-03-29T10:28:34.036Z,958.9148
2023-03-29T10:29:34.849Z,958.8741
2023-03-29T10:30:35.626Z,958.8452
2023-03-29T10:31:36.461Z,958.8111
2023-03-29T10:32:37.251Z,958.7797
2023-03-29T10:33:37.951Z,958.7689
2023-03-29T10:34:38.748Z,958.7674
2023-03-29T10:35:39.583Z,958.7926
2023-03-29T10:36:40.350Z,958.7970
2023-03-29T10:37:41.112Z,958.7848
2023-03-29T10:38:41.899Z,958.7697
2023-03-29T10:39:42.665Z,958.7404
2023-03-29T10:40:43.453Z,958.7018
2023-03-29T10:41:44.252Z,958.6822
2023-03-29T10:42:45.039Z,958.6837
2023-03-29T10:43:45.838Z,958.7130
2023-03-29T10:44:46.827Z,958.6866
2023-03-29T10:45:47.525Z,958.6304
2023-03-29T10:46:48.230Z,958.6155
2023-03-29T10:47:49.087Z,958.6648
2023-03-29T10:48:49.768Z,958.6630
2023-03-29T10:49:51.021Z,958.6211
2023-03-29T10:50:51.738Z,958.6171
2023-03-29T10:51:52.473Z,958.6259
2023-03-29T10:52:53.234Z,958.6378
2023-03-29T10:53:54.062Z,958.6215
2023-03-29T10:54:54.864Z,958.5897
2023-03-29T10:55:55.655Z,958.5989
2023-03-29T10:56:56.497Z,958.6241
2023-03-29T10:57:57.305Z,958.6266
2023-03-29T10:58:58.094Z,958.6015
2023-03-29T10:59:58.878Z,958.6356
2023-03-29T11:00:59.802Z,958.6222
2023-03-29T11:02:01.086Z,958.5978
2023-03-29T11:03:01.956Z,958.6300
2023-03-29T11:04:02.848Z,958.5667
2023-03-29T11:05:03.855Z,958.5474
2023-03-29T11:06:04.638Z,958.5333
2023-03-29T11:07:05.455Z,958.5330
2023-03-29T11:08:06.227Z,958.5230
2023-03-29T11:09:07.067Z,958.5115
2023-03-29T11:10:07.846Z,958.4545
2023-03-29T11:11:08.626Z,958.4318
2023-03-29T11:12:15.607Z,958.4322
2023-03-29T11:14:11.223Z,958.3870
2023-03-29T11:15:11.866Z,958.3748
2023-03-29T11:16:12.697Z,958.3571
2023-03-29T11:17:13.485Z,958.3519
2023-03-29T11:18:14.249Z,958.3126
2023-03-29T11:19:15.011Z,958.3130
2023-03-29T11:20:15.852Z,958.3226
2023-03-29T11:21:16.616Z,958.3074
2023-03-29T11:22:17.448Z,958.3052
2023-03-29T11:23:18.228Z,958.3070
2023-03-29T11:24:19.106Z,958.2785
2023-03-29T11:25:19.864Z,958.2626
2023-03-29T11:26:20.646Z,958.2804
2023-03-29T11:27:21.490Z,958.2719
2023-03-29T11:28:22.256Z,958.2441
2023-03-29T11:29:22.986Z,958.2011
2023-03-29T11:30:23.749Z,958.2067
2023-03-29T11:31:24.730Z,958.2337
2023-03-29T11:32:25.690Z,958.1989
2023-03-29T11:33:26.453Z,958.1682
2023-03-29T11:34:27.269Z,958.1978
2023-03-29T11:35:28.038Z,958.2119
2023-03-29T11:36:28.874Z,958.2396
2023-03-29T11:37:29.616Z,958.2278
2023-03-29T11:38:30.424Z,958.2241
2023-03-29T11:39:31.197Z,958.2255
2023-03-29T11:40:33.046Z,958.2026
2023-03-29T11:41:33.963Z,958.1922
2023-03-29T11:42:34.767Z,958.2145
2023-03-29T11:43:35.552Z,958.1741
2023-03-29T11:44:36.397Z,958.1122
2023-03-29T11:45:37.213Z,958.1089
2023-03-29T11:46:38.050Z,958.1285
2023-03-29T11:47:38.946Z,958.1726
2023-03-29T11:48:39.709Z,958.1526
2023-03-29T11:49:40.495Z,958.1322
2023-03-29T11:50:41.307Z,958.1037
2023-03-29T11:51:42.108Z,958.0852
2023-03-29T11:52:42.951Z,958.0919
2023-03-29T11:53:43.616Z,958.0752
2023-03-29T11:54:44.531Z,958.0970
2023-03-29T11:55:45.345Z,958.1019
2023-03-29T11:56:46.209Z,958.1026
2023-03-29T11:57:46.973Z,958.1085
2023-03-29T11:58:47.747Z,958.0804